Time;durP1;ratioP1;P1;durP2;ratioP2;P2;SDS_P1;SDS_P2;PMS_P1;PMS_P2;Temp;Humidity;BMP_temperature;BMP_pressure;BME280_temperature;BME280_humidity;BME280_pressure;Samples;Min_cycle;Max_cycle;Signal;HPM_P1;HPM_P2
2022/04/18 00:01:14;;;;;;;19.60;12.10;;;9.20;79.40;;;;;;5082484;28;20123;-70
2022/04/18 00:03:39;;;;;;;21.77;13.20;;;9.20;79.60;;;;;;5084241;28;20411;-71
2022/04/18 00:06:05;;;;;;;21.05;12.27;;;9.20;79.10;;;;;;5084838;28;20459;-71
2022/04/18 00:08:31;;;;;;;21.52;13.07;;;9.20;79.00;;;;;;5086553;28;20463;-71
2022/04/18 00:10:57;;;;;;;21.08;13.20;;;9.10;79.20;;;;;;5087194;28;20059;-70
2022/04/18 00:13:22;;;;;;;21.33;12.82;;;9.10;79.40;;;;;;5084870;28;20127;-71
2022/04/18 00:15:49;;;;;;;19.63;12.65;;;9.10;79.80;;;;;;5085794;28;20071;-71
2022/04/18 00:18:15;;;;;;;20.38;12.48;;;9.10;79.90;;;;;;5079973;28;20178;-71
2022/04/18 00:20:40;;;;;;;18.38;12.00;;;9.10;80.10;;;;;;5085081;28;20085;-71
2022/04/18 00:23:06;;;;;;;20.83;12.60;;;9.00;79.80;;;;;;5084976;28;20162;-71
2022/04/18 00:25:31;;;;;;;18.65;11.90;;;9.00;80.00;;;;;;5086120;28;20051;-70
2022/04/18 00:27:57;;;;;;;18.85;12.50;;;9.00;80.00;;;;;;5086647;28;20119;-71
2022/04/18 00:30:22;;;;;;;18.95;12.18;;;9.00;80.10;;;;;;5086800;28;20079;-70
2022/04/18 00:32:48;;;;;;;19.00;12.10;;;9.00;80.10;;;;;;5085400;28;20051;-71
2022/04/18 00:35:13;;;;;;;19.75;12.45;;;8.90;80.30;;;;;;5084973;28;20047;-71
2022/04/18 00:37:40;;;;;;;20.00;12.35;;;8.90;80.60;;;;;;5084447;28;20040;-70
2022/04/18 00:40:07;;;;;;;19.85;12.75;;;8.90;80.50;;;;;;5087071;28;20044;-70
2022/04/18 00:42:33;;;;;;;19.02;12.15;;;8.90;80.30;;;;;;5082911;28;20396;-71
2022/04/18 00:44:59;;;;;;;18.70;11.93;;;8.80;80.10;;;;;;5084065;28;20452;-71
2022/04/18 00:47:24;;;;;;;19.15;12.70;;;8.80;80.20;;;;;;5086730;28;20054;-70
2022/04/18 00:49:50;;;;;;;17.33;11.38;;;8.80;80.10;;;;;;5082565;28;20079;-70
2022/04/18 00:52:16;;;;;;;20.38;11.80;;;8.80;80.10;;;;;;5083393;28;20059;-71
2022/04/18 00:54:42;;;;;;;18.45;11.73;;;8.80;79.60;;;;;;5087450;28;20824;-71
2022/04/18 00:57:10;;;;;;;16.95;11.82;;;8.70;79.50;;;;;;5081887;28;20086;-70
2022/04/18 00:59:37;;;;;;;15.77;11.20;;;8.70;79.50;;;;;;5083960;28;20156;-70
2022/04/18 01:02:04;;;;;;;16.77;11.23;;;8.70;79.60;;;;;;5085461;28;20483;-71
2022/04/18 01:04:31;;;;;;;18.60;11.77;;;8.70;79.60;;;;;;5082759;28;20553;-70
2022/04/18 01:06:58;;;;;;;16.70;11.85;;;8.70;80.00;;;;;;5076893;28;20058;-70
2022/04/18 01:09:24;;;;;;;15.57;10.82;;;8.60;79.90;;;;;;5083461;28;20513;-71
2022/04/18 01:11:50;;;;;;;15.60;10.55;;;8.60;79.60;;;;;;5083395;28;20098;-71
2022/04/18 01:14:16;;;;;;;15.85;11.52;;;8.60;79.50;;;;;;5065887;28;20047;-71
2022/04/18 01:16:42;;;;;;;17.80;11.77;;;8.60;80.00;;;;;;5084988;28;20040;-70
2022/04/18 01:19:09;;;;;;;16.50;11.68;;;8.60;80.90;;;;;;5083713;28;20118;-70
2022/04/18 01:21:35;;;;;;;16.50;11.15;;;8.50;81.70;;;;;;5080700;28;20051;-70
2022/04/18 01:24:01;;;;;;;15.05;10.80;;;8.40;83.00;;;;;;5087360;28;20040;-71
2022/04/18 01:29:11;;;;;;;15.35;10.90;;;8.30;85.40;;;;;;5085865;28;20067;-70
2022/04/18 01:31:38;;;;;;;17.58;11.27;;;8.20;85.80;;;;;;5086086;28;20056;-71
2022/04/18 01:34:05;;;;;;;15.52;10.52;;;8.20;85.50;;;;;;5083953;28;20071;-70
2022/04/18 01:36:32;;;;;;;18.80;11.60;;;8.20;85.80;;;;;;5086619;28;20044;-71
2022/04/18 01:38:58;;;;;;;15.52;11.07;;;8.20;86.30;;;;;;5084732;28;20066;-70
2022/04/18 01:41:24;;;;;;;17.70;11.23;;;8.10;86.80;;;;;;5083930;28;20044;-70
2022/04/18 01:43:49;;;;;;;14.73;10.90;;;8.10;87.40;;;;;;5080420;28;20448;-70
2022/04/18 01:46:16;;;;;;;15.75;11.10;;;8.00;88.00;;;;;;5082684;28;20126;-70
2022/04/18 01:48:42;;;;;;;15.73;11.38;;;7.90;88.40;;;;;;5083045;28;20043;-70
2022/04/18 01:51:07;;;;;;;15.50;11.57;;;7.90;89.10;;;;;;5083361;28;20036;-70
2022/04/18 01:53:33;;;;;;;16.45;12.35;;;7.80;90.30;;;;;;5079184;28;20388;-70
2022/04/18 01:55:59;;;;;;;15.73;11.20;;;7.80;90.40;;;;;;5081146;28;20072;-70
2022/04/18 01:58:25;;;;;;;16.35;11.73;;;7.80;90.60;;;;;;5084657;28;20134;-70
2022/04/18 02:00:50;;;;;;;16.23;11.30;;;7.70;90.70;;;;;;5082830;28;20146;-71
2022/04/18 02:03:16;;;;;;;15.40;11.45;;;7.70;90.60;;;;;;5083665;28;20069;-71
2022/04/18 02:05:43;;;;;;;19.77;12.77;;;7.70;90.30;;;;;;5079207;28;20036;-71
2022/04/18 02:08:09;;;;;;;16.55;11.35;;;7.70;90.30;;;;;;5084646;28;20051;-71
2022/04/18 02:10:35;;;;;;;15.18;11.38;;;7.60;90.20;;;;;;5085054;28;20059;-71
2022/04/18 02:13:01;;;;;;;16.35;11.77;;;7.60;90.40;;;;;;5084652;28;20416;-71
2022/04/18 02:15:26;;;;;;;17.75;11.80;;;7.50;90.90;;;;;;5084891;28;20606;-71
2022/04/18 02:17:52;;;;;;;17.80;11.88;;;7.50;91.40;;;;;;5082314;28;20047;-70
2022/04/18 02:20:17;;;;;;;16.98;11.48;;;7.50;91.90;;;;;;5082105;28;20052;-70
2022/04/18 02:22:43;;;;;;;15.65;11.30;;;7.40;92.40;;;;;;5080239;28;20414;-70
2022/04/18 02:25:09;;;;;;;16.48;11.70;;;7.30;92.70;;;;;;5084815;28;20067;-70
2022/04/18 02:27:36;;;;;;;16.13;11.38;;;7.30;93.00;;;;;;5085205;28;20079;-70
2022/04/18 02:30:02;;;;;;;19.38;11.93;;;7.30;93.50;;;;;;5084060;28;20051;-70
2022/04/18 02:35:12;;;;;;;18.08;12.57;;;7.20;93.90;;;;;;5082522;28;20051;-70
2022/04/18 02:37:37;;;;;;;18.08;12.10;;;7.20;93.90;;;;;;5084319;28;20111;-70
2022/04/18 02:40:05;;;;;;;19.00;11.95;;;7.10;93.90;;;;;;5066397;28;20058;-70
2022/04/18 02:42:30;;;;;;;16.88;12.00;;;7.10;94.10;;;;;;5083074;28;20095;-70
2022/04/18 02:44:56;;;;;;;17.88;12.10;;;7.10;94.30;;;;;;5082385;28;20050;-70
2022/04/18 02:47:22;;;;;;;16.95;12.63;;;7.00;94.70;;;;;;5082372;28;21211;-70
2022/04/18 02:49:49;;;;;;;16.48;11.70;;;7.00;95.10;;;;;;5085752;28;20082;-70
2022/04/18 02:52:16;;;;;;;18.27;12.25;;;7.00;95.20;;;;;;5082200;28;20058;-70
2022/04/18 02:54:41;;;;;;;16.90;11.38;;;7.00;95.00;;;;;;5083324;28;20063;-70
2022/04/18 02:57:07;;;;;;;16.38;11.80;;;6.90;95.00;;;;;;5081540;28;20071;-70
2022/04/18 02:59:32;;;;;;;17.42;11.50;;;7.00;95.00;;;;;;5085189;28;20119;-70
2022/04/18 03:01:58;;;;;;;16.50;12.02;;;7.00;94.40;;;;;;5083988;28;20459;-70
2022/04/18 03:04:23;;;;;;;17.27;12.00;;;6.90;94.00;;;;;;5075790;28;20432;-70
2022/04/18 03:06:49;;;;;;;18.08;12.25;;;6.90;94.00;;;;;;5084730;28;20075;-70
2022/04/18 03:09:15;;;;;;;16.10;12.20;;;7.00;93.80;;;;;;5083460;28;20083;-70
2022/04/18 03:11:40;;;;;;;17.90;11.93;;;7.00;93.60;;;;;;5081576;28;20102;-70
2022/04/18 03:14:06;;;;;;;18.67;11.93;;;7.00;93.60;;;;;;5082448;28;20134;-70
2022/04/18 03:16:32;;;;;;;17.85;12.40;;;6.90;93.60;;;;;;5083669;28;20032;-70
2022/04/18 03:18:57;;;;;;;18.92;11.98;;;6.90;93.50;;;;;;5080693;28;20078;-70
2022/04/18 03:21:23;;;;;;;17.08;11.77;;;6.90;93.40;;;;;;5083100;28;20062;-70
2022/04/18 03:23:48;;;;;;;17.42;12.13;;;6.90;93.50;;;;;;5081358;28;20097;-70
2022/04/18 03:26:14;;;;;;;15.77;11.77;;;6.90;93.10;;;;;;5082003;28;20187;-70
2022/04/18 03:28:39;;;;;;;18.30;12.55;;;6.90;92.90;;;;;;5082346;28;20114;-70
2022/04/18 03:31:05;;;;;;;17.05;11.88;;;6.90;92.90;;;;;;5066602;28;20048;-70
2022/04/18 03:33:31;;;;;;;18.05;12.02;;;6.90;92.70;;;;;;5080571;28;20036;-70
2022/04/18 03:41:25;;;;;;;17.55;12.07;;;6.90;92.40;;;;;;5086344;28;20060;-70
2022/04/18 03:43:51;;;;;;;18.33;11.68;;;6.80;92.50;;;;;;5081237;28;20391;-70
2022/04/18 03:46:17;;;;;;;16.33;12.30;;;6.80;92.50;;;;;;5087519;28;20044;-70
2022/04/18 03:48:43;;;;;;;16.15;12.07;;;6.80;92.50;;;;;;5085607;28;20036;-70
2022/04/18 03:51:08;;;;;;;17.60;12.00;;;6.80;92.50;;;;;;5083200;28;20051;-70
2022/04/18 03:53:34;;;;;;;17.60;12.57;;;6.80;92.50;;;;;;5088397;28;20388;-70
2022/04/18 03:56:00;;;;;;;17.65;12.45;;;6.80;92.50;;;;;;5083861;28;20048;-70
2022/04/18 03:58:25;;;;;;;19.95;12.57;;;6.70;92.30;;;;;;5087915;28;20368;-70
2022/04/18 04:00:51;;;;;;;16.35;11.45;;;6.70;92.20;;;;;;5087857;28;20126;-70
2022/04/18 04:03:16;;;;;;;18.25;11.93;;;6.80;92.00;;;;;;5085099;28;20043;-70
2022/04/18 04:05:42;;;;;;;16.95;12.13;;;6.70;92.10;;;;;;5081447;28;20131;-70
2022/04/18 04:08:08;;;;;;;18.20;12.20;;;6.70;92.10;;;;;;5087612;28;20050;-70
2022/04/18 04:10:33;;;;;;;18.35;12.55;;;6.70;92.00;;;;;;5078880;28;20044;-70
2022/04/18 04:12:59;;;;;;;16.83;12.13;;;6.70;91.90;;;;;;5088444;28;20051;-70
2022/04/18 04:15:25;;;;;;;16.63;12.32;;;6.70;91.90;;;;;;5082230;28;20105;-70
2022/04/18 04:17:50;;;;;;;18.40;12.23;;;6.60;91.80;;;;;;5079835;28;20039;-70
2022/04/18 04:20:16;;;;;;;19.40;13.40;;;6.60;91.90;;;;;;5079979;28;20725;-70
2022/04/18 04:22:48;;;;;;;17.63;12.45;;;6.60;92.10;;;;;;5079985;28;20093;-70
2022/04/18 04:25:14;;;;;;;19.40;12.27;;;6.60;92.00;;;;;;5074210;28;20104;-70
2022/04/18 04:27:40;;;;;;;17.27;11.55;;;6.60;92.00;;;;;;5076398;28;20044;-70
2022/04/18 04:30:06;;;;;;;17.58;12.00;;;6.60;92.00;;;;;;5074302;28;20050;-70
2022/04/18 04:32:32;;;;;;;19.05;12.60;;;6.60;92.00;;;;;;5075796;28;20059;-70
2022/04/18 04:34:57;;;;;;;21.90;12.75;;;6.60;92.00;;;;;;5078039;28;20345;-70
2022/04/18 04:37:23;;;;;;;18.95;13.57;;;6.60;91.90;;;;;;5076966;28;20483;-70
2022/04/18 04:39:48;;;;;;;19.40;12.95;;;6.50;91.80;;;;;;5078923;28;20069;-70
2022/04/18 04:42:15;;;;;;;20.38;14.32;;;6.50;92.00;;;;;;5075397;28;20048;-70
2022/04/18 04:44:40;;;;;;;23.98;15.63;;;6.60;92.00;;;;;;5080512;28;20036;-70
2022/04/18 04:47:06;;;;;;;22.45;15.15;;;6.50;91.90;;;;;;5077438;28;20036;-70
2022/04/18 04:49:31;;;;;;;21.38;14.68;;;6.50;91.80;;;;;;5077592;28;20052;-70
2022/04/18 04:51:57;;;;;;;20.17;14.00;;;6.60;91.80;;;;;;5076544;28;20070;-70
2022/04/18 04:54:22;;;;;;;20.35;13.68;;;6.50;91.70;;;;;;5077221;28;20116;-70
2022/04/18 04:56:48;;;;;;;19.35;12.68;;;6.50;91.80;;;;;;5074498;28;20080;-70
2022/04/18 04:59:14;;;;;;;18.08;13.15;;;6.60;91.90;;;;;;5075304;28;20164;-70
2022/04/18 05:01:40;;;;;;;19.17;13.73;;;6.70;91.60;;;;;;5074347;28;20494;-70
2022/04/18 05:04:05;;;;;;;19.20;13.20;;;6.80;91.00;;;;;;5076925;28;20032;-70
2022/04/18 05:06:31;;;;;;;21.17;14.85;;;7.10;90.30;;;;;;5077677;28;20148;-70
2022/04/18 05:08:57;;;;;;;19.25;14.27;;;8.10;85.00;;;;;;5083012;28;20170;-70
2022/04/18 05:11:22;;;;;;;21.33;14.77;;;9.00;79.10;;;;;;5075187;28;20048;-70
2022/04/18 05:13:48;;;;;;;20.83;15.27;;;9.70;75.60;;;;;;5077051;28;20075;-70
2022/04/18 05:16:14;;;;;;;20.10;15.43;;;10.00;73.70;;;;;;5074082;28;20055;-70
2022/04/18 05:18:39;;;;;;;20.80;15.75;;;10.00;73.60;;;;;;5079019;28;20044;-70
2022/04/18 05:21:05;;;;;;;23.17;15.48;;;9.80;73.60;;;;;;5078765;28;20528;-70
2022/04/18 05:23:31;;;;;;;24.75;18.55;;;9.60;73.90;;;;;;5081722;28;20044;-70
2022/04/18 05:25:56;;;;;;;19.65;14.75;;;9.30;74.30;;;;;;5081101;28;20046;-69
2022/04/18 05:28:22;;;;;;;22.30;15.90;;;9.20;74.80;;;;;;5081271;28;20054;-69
2022/04/18 05:30:48;;;;;;;21.27;15.25;;;9.00;75.10;;;;;;5079203;28;20093;-70
2022/04/18 05:33:13;;;;;;;19.85;14.20;;;8.90;76.00;;;;;;5082970;28;20472;-70
2022/04/18 05:35:39;;;;;;;22.70;14.73;;;8.80;76.40;;;;;;5079646;28;20058;-69
2022/04/18 05:38:05;;;;;;;19.08;13.63;;;8.70;77.00;;;;;;5078595;28;20075;-70
2022/04/18 05:40:31;;;;;;;20.13;12.95;;;8.70;77.80;;;;;;5078403;28;20501;-69
2022/04/18 05:42:57;;;;;;;18.10;13.10;;;8.60;78.40;;;;;;5079285;28;20532;-70
2022/04/18 05:45:23;;;;;;;21.92;14.15;;;8.60;79.10;;;;;;5076580;28;20161;-70
2022/04/18 05:47:48;;;;;;;22.17;13.85;;;8.60;78.80;;;;;;5077641;28;20054;-70
2022/04/18 05:50:14;;;;;;;18.98;13.65;;;8.60;78.90;;;;;;5082915;28;20040;-70
2022/04/18 05:52:40;;;;;;;21.48;13.80;;;8.50;78.90;;;;;;5076026;28;20069;-70
2022/04/18 05:55:05;;;;;;;19.73;13.43;;;8.50;79.20;;;;;;5079200;28;20164;-70
2022/04/18 05:57:31;;;;;;;20.23;13.13;;;8.50;79.30;;;;;;5078663;28;20157;-70
2022/04/18 05:59:56;;;;;;;19.67;13.60;;;8.50;79.80;;;;;;5081912;28;20050;-70
2022/04/18 06:02:22;;;;;;;19.25;12.65;;;8.60;80.20;;;;;;5080595;28;20391;-70
2022/04/18 06:04:48;;;;;;;18.67;13.23;;;8.60;80.50;;;;;;5079400;28;20040;-70
2022/04/18 06:07:13;;;;;;;19.08;13.07;;;8.60;81.20;;;;;;5079968;28;20131;-70
2022/04/18 06:09:39;;;;;;;19.60;12.63;;;8.60;82.00;;;;;;5078516;28;20497;-70
2022/04/18 06:12:04;;;;;;;20.65;12.85;;;8.70;82.70;;;;;;5082543;28;20052;-70
2022/04/18 06:14:30;;;;;;;18.55;12.23;;;8.80;83.00;;;;;;5084091;28;20051;-70
2022/04/18 06:16:55;;;;;;;18.30;12.98;;;8.80;83.40;;;;;;5083838;28;20040;-71
2022/04/18 06:19:21;;;;;;;18.30;12.60;;;8.90;84.00;;;;;;5082504;28;20124;-71
2022/04/18 06:21:49;;;;;;;19.33;12.95;;;9.00;84.40;;;;;;5083117;28;20119;-70
2022/04/18 06:24:16;;;;;;;18.55;12.73;;;9.00;84.60;;;;;;5062168;28;20074;-70
2022/04/18 06:26:41;;;;;;;16.58;11.85;;;9.20;85.30;;;;;;5070140;28;20073;-70
2022/04/18 06:29:07;;;;;;;16.15;12.18;;;9.20;85.50;;;;;;5078409;28;20123;-70
2022/04/18 06:31:33;;;;;;;17.00;12.50;;;9.30;86.10;;;;;;5075462;28;20080;-70
2022/04/18 06:33:58;;;;;;;15.13;11.18;;;9.40;87.20;;;;;;5069378;28;20072;-68
2022/04/18 06:36:24;;;;;;;16.90;12.07;;;9.50;87.20;;;;;;5074278;28;20052;-66
2022/04/18 06:38:49;;;;;;;18.38;12.25;;;9.60;86.60;;;;;;5085289;28;20044;-70
2022/04/18 06:41:15;;;;;;;16.48;11.57;;;9.70;87.60;;;;;;5073673;28;20071;-69
2022/04/18 06:43:40;;;;;;;17.70;11.23;;;9.70;86.60;;;;;;5079515;28;20047;-69
2022/04/18 06:46:06;;;;;;;18.13;11.90;;;9.80;87.10;;;;;;5073100;28;20045;-69
2022/04/18 06:48:31;;;;;;;15.75;11.27;;;9.90;86.70;;;;;;5074111;28;20434;-70
2022/04/18 06:50:57;;;;;;;16.33;11.35;;;10.00;85.00;;;;;;5077300;28;20119;-69
2022/04/18 06:53:23;;;;;;;16.27;11.23;;;10.10;83.80;;;;;;5069941;28;20109;-69
2022/04/18 06:58:32;;;;;;;15.30;11.00;;;10.20;82.50;;;;;;5076741;28;20073;-69
2022/04/18 07:00:58;;;;;;;17.38;11.40;;;10.30;79.70;;;;;;5080018;28;20697;-70
2022/04/18 07:03:23;;;;;;;14.45;10.57;;;10.40;79.80;;;;;;5081358;28;20048;-68
2022/04/18 07:05:49;;;;;;;14.85;10.60;;;10.40;80.40;;;;;;5083618;28;20040;-69
2022/04/18 07:08:15;;;;;;;15.00;11.13;;;10.50;79.40;;;;;;5084541;28;20036;-69
2022/04/18 07:10:40;;;;;;;14.70;10.73;;;10.60;78.60;;;;;;5080658;28;20047;-69
2022/04/18 07:13:06;;;;;;;13.95;9.57;;;10.70;79.50;;;;;;5083756;28;20491;-70
2022/04/18 07:15:35;;;;;;;15.18;10.90;;;10.70;78.80;;;;;;5082283;28;20043;-71
2022/04/18 07:18:01;;;;;;;14.00;10.07;;;10.80;80.00;;;;;;5085040;28;20075;-69
2022/04/18 07:20:28;;;;;;;13.82;10.32;;;10.90;79.50;;;;;;5082153;28;20119;-68
2022/04/18 07:22:54;;;;;;;14.07;10.35;;;11.00;78.40;;;;;;5064238;28;20096;-70
2022/04/18 07:25:20;;;;;;;13.35;10.10;;;11.10;77.10;;;;;;5084406;28;21270;-69
2022/04/18 07:27:45;;;;;;;17.25;10.63;;;11.10;77.50;;;;;;5081263;28;20078;-70
2022/04/18 07:30:11;;;;;;;15.45;10.18;;;11.20;78.00;;;;;;5079663;28;20036;-70
2022/04/18 07:32:40;;;;;;;14.45;10.70;;;11.30;77.00;;;;;;5069940;28;20037;-70
2022/04/18 07:35:07;;;;;;;13.48;9.80;;;11.40;77.00;;;;;;5084754;28;20043;-70
2022/04/18 07:37:33;;;;;;;15.40;10.70;;;11.50;76.90;;;;;;5075317;28;20057;-69
2022/04/18 07:39:59;;;;;;;15.43;10.25;;;11.50;77.40;;;;;;5070606;28;20051;-69
2022/04/18 07:42:24;;;;;;;13.27;9.23;;;11.60;77.40;;;;;;5082364;28;20040;-70
2022/04/18 07:44:50;;;;;;;13.63;10.13;;;11.70;76.70;;;;;;5084954;28;20032;-70
2022/04/18 07:47:15;;;;;;;13.93;9.57;;;11.80;76.90;;;;;;5083963;28;20046;-71
2022/04/18 07:49:41;;;;;;;13.75;10.18;;;11.90;76.90;;;;;;5077086;28;20181;-70
2022/04/18 07:52:08;;;;;;;17.15;10.20;;;12.00;77.60;;;;;;5072368;28;20403;-70
2022/04/18 07:54:34;;;;;;;12.98;9.45;;;12.10;77.30;;;;;;5069556;28;20091;-70
2022/04/18 07:57:00;;;;;;;15.85;10.40;;;12.20;77.10;;;;;;5072246;28;20496;-70
2022/04/18 07:59:25;;;;;;;15.80;10.02;;;12.20;76.00;;;;;;5084223;28;20032;-71
2022/04/18 08:01:51;;;;;;;12.50;9.23;;;12.30;77.20;;;;;;5085134;28;20052;-70
2022/04/18 08:04:16;;;;;;;15.15;9.43;;;12.40;77.90;;;;;;5084873;28;20048;-70
2022/04/18 08:06:42;;;;;;;15.05;9.25;;;12.40;75.60;;;;;;5079856;28;20318;-70
2022/04/18 08:09:08;;;;;;;12.38;8.88;;;12.50;75.40;;;;;;5072973;28;20076;-70
2022/04/18 08:11:33;;;;;;;14.32;9.23;;;12.60;76.40;;;;;;5072860;28;20059;-69
2022/04/18 08:13:59;;;;;;;13.75;8.82;;;12.70;75.00;;;;;;5077440;28;20086;-67
2022/04/18 08:16:24;;;;;;;15.45;9.00;;;12.80;74.60;;;;;;5072363;28;20036;-67
2022/04/18 08:18:51;;;;;;;13.75;9.35;;;12.90;74.70;;;;;;5075414;28;20124;-68
2022/04/18 08:21:17;;;;;;;11.15;8.48;;;13.00;74.10;;;;;;5074460;28;20040;-68
2022/04/18 08:23:48;;;;;;;12.10;8.95;;;13.10;73.20;;;;;;5082816;28;20050;-70
2022/04/18 08:26:14;;;;;;;11.55;8.90;;;13.20;72.20;;;;;;5078931;28;20035;-69
2022/04/18 08:28:40;;;;;;;13.00;8.48;;;13.30;72.50;;;;;;5083572;28;20085;-69
2022/04/18 08:31:07;;;;;;;12.35;8.90;;;13.40;71.20;;;;;;5076841;28;20044;-70
2022/04/18 08:33:34;;;;;;;12.18;8.18;;;13.40;71.70;;;;;;5083930;28;20048;-70
2022/04/18 08:36:00;;;;;;;13.25;8.57;;;13.50;71.50;;;;;;5082708;28;20047;-69
2022/04/18 08:38:26;;;;;;;12.30;8.68;;;13.60;71.20;;;;;;5087190;28;20040;-69
2022/04/18 08:40:57;;;;;;;11.75;7.75;;;13.70;71.70;;;;;;5079235;28;20100;-69
2022/04/18 08:43:22;;;;;;;12.18;8.05;;;13.90;71.70;;;;;;5082909;28;20142;-69
2022/04/18 08:45:49;;;;;;;10.25;7.53;;;13.90;71.30;;;;;;5088552;28;20092;-69
2022/04/18 08:53:46;;;;;;;11.65;7.93;;;14.20;70.20;;;;;;5086159;28;20044;-69
2022/04/18 08:56:11;;;;;;;12.00;8.13;;;14.30;69.60;;;;;;5085959;28;20055;-68
2022/04/18 08:58:37;;;;;;;10.85;5.95;;;14.50;70.20;;;;;;5089408;28;20074;-69
2022/04/18 09:01:04;;;;;;;10.95;8.20;;;14.60;72.00;;;;;;5086583;28;20419;-69
2022/04/18 09:03:29;;;;;;;11.57;8.05;;;14.60;70.10;;;;;;5080830;28;20076;-69
2022/04/18 09:06:07;;;;;;;13.02;8.15;;;14.70;68.40;;;;;;5078041;28;20074;-69
2022/04/18 09:08:56;;;;;;;11.43;7.72;;;14.80;67.10;;;;;;5088732;28;20075;-68
2022/04/18 09:11:27;;;;;;;10.18;7.88;;;14.90;66.90;;;;;;5083572;28;20123;-69
2022/04/18 09:14:13;;;;;;;10.80;7.65;;;15.00;67.40;;;;;;5087199;28;20032;-69
2022/04/18 09:16:40;;;;;;;12.55;8.13;;;15.10;66.10;;;;;;5087018;28;20068;-69
2022/04/18 09:19:10;;;;;;;10.55;7.63;;;15.10;66.70;;;;;;5088208;28;20036;-67
2022/04/18 09:21:56;;;;;;;11.57;7.35;;;15.20;65.00;;;;;;5087064;28;20051;-69
2022/04/18 09:24:34;;;;;;;10.70;7.47;;;15.30;64.00;;;;;;5067903;28;20063;-70
2022/04/18 09:27:31;;;;;;;10.98;7.60;;;15.40;64.60;;;;;;5088203;28;20143;-68
2022/04/18 09:30:04;;;;;;;10.13;6.95;;;15.50;64.20;;;;;;5079574;28;20091;-69
2022/04/18 09:32:29;;;;;;;10.55;7.05;;;15.60;64.90;;;;;;5086969;28;20439;-69
2022/04/18 09:35:03;;;;;;;10.23;5.82;;;15.60;63.70;;;;;;5084730;28;20166;-70
2022/04/18 09:37:29;;;;;;;9.50;6.07;;;15.70;61.40;;;;;;5084932;28;20042;-69
2022/04/18 09:39:56;;;;;;;10.25;6.05;;;15.80;60.80;;;;;;5088412;28;20078;-70
2022/04/18 09:42:24;;;;;;;9.10;5.90;;;15.90;61.30;;;;;;5085242;28;20064;-69
2022/04/18 09:44:50;;;;;;;10.52;6.40;;;16.00;60.20;;;;;;5084158;28;20031;-67
2022/04/18 09:47:17;;;;;;;9.43;6.40;;;16.10;60.40;;;;;;5086783;28;20068;-68
2022/04/18 09:49:44;;;;;;;7.50;4.63;;;16.20;61.20;;;;;;5082859;28;20568;-68
2022/04/18 09:52:11;;;;;;;11.13;5.57;;;16.30;60.10;;;;;;5085104;28;20137;-68
2022/04/18 09:54:45;;;;;;;8.88;5.20;;;16.30;58.50;;;;;;5084604;28;20528;-68
2022/04/18 09:57:10;;;;;;;7.32;4.93;;;16.30;57.70;;;;;;5083788;28;20052;-67
2022/04/18 09:59:38;;;;;;;8.52;4.63;;;16.40;58.20;;;;;;5088905;28;20130;-68
2022/04/18 10:02:04;;;;;;;7.60;4.82;;;16.40;57.50;;;;;;5087336;28;20518;-67
2022/04/18 10:04:30;;;;;;;8.05;4.95;;;16.50;57.00;;;;;;5069994;28;20052;-67
2022/04/18 10:06:57;;;;;;;7.72;4.88;;;16.60;56.40;;;;;;5082473;28;20664;-68
2022/04/18 10:09:26;;;;;;;7.97;5.10;;;16.70;56.60;;;;;;5085245;28;20047;-68
2022/04/18 10:11:55;;;;;;;6.88;4.30;;;16.70;55.70;;;;;;5083150;28;20076;-67
2022/04/18 10:14:20;;;;;;;7.28;4.40;;;16.80;55.30;;;;;;5077466;28;20032;-68
2022/04/18 10:16:46;;;;;;;6.78;4.00;;;16.90;55.20;;;;;;5081277;28;20050;-68
2022/04/18 10:19:49;;;;;;;7.35;3.50;;;16.90;52.90;;;;;;5080942;28;20040;-67
2022/04/18 10:22:56;;;;;;;6.72;3.80;;;16.90;52.50;;;;;;5077324;28;20456;-68
2022/04/18 10:25:33;;;;;;;4.75;3.03;;;17.00;53.30;;;;;;5054583;28;20354;-67
2022/04/18 10:28:04;;;;;;;7.78;3.75;;;17.10;49.10;;;;;;5076091;28;20131;-68
2022/04/18 10:30:35;;;;;;;6.28;4.07;;;17.20;51.00;;;;;;5076600;28;20036;-67
2022/04/18 10:33:02;;;;;;;6.35;4.10;;;17.40;53.90;;;;;;5079608;28;20593;-67
2022/04/18 10:35:28;;;;;;;7.32;3.67;;;17.50;54.10;;;;;;5087915;28;20480;-67
2022/04/18 10:37:56;;;;;;;5.53;2.50;;;17.50;54.30;;;;;;5081250;28;20048;-66
2022/04/18 10:40:23;;;;;;;6.10;3.33;;;17.60;53.30;;;;;;5075283;28;20143;-68
2022/04/18 10:42:49;;;;;;;6.18;3.17;;;17.60;49.70;;;;;;5078477;28;20097;-68
2022/04/18 10:45:21;;;;;;;5.13;2.60;;;17.60;48.10;;;;;;5078266;28;20388;-68
2022/04/18 10:47:55;;;;;;;6.40;2.50;;;17.60;47.40;;;;;;5086247;28;20043;-68
2022/04/18 10:50:22;;;;;;;4.60;2.75;;;17.70;47.30;;;;;;5085423;28;20102;-67
2022/04/18 10:53:09;;;;;;;6.10;2.70;;;17.80;48.90;;;;;;5090079;28;20360;-67
2022/04/18 10:56:01;;;;;;;5.28;2.72;;;17.90;45.40;;;;;;5078282;28;20073;-67
2022/04/18 10:58:30;;;;;;;6.00;2.63;;;17.90;47.60;;;;;;5085398;28;20105;-68
2022/04/18 11:00:58;;;;;;;4.72;2.85;;;18.00;49.40;;;;;;5088502;28;20408;-67
2022/04/18 11:03:49;;;;;;;6.57;3.10;;;18.00;47.70;;;;;;5084017;28;20123;-66
2022/04/18 11:06:18;;;;;;;4.60;2.67;;;18.10;45.30;;;;;;5084265;28;20115;-67
2022/04/18 11:09:01;;;;;;;6.47;3.22;;;18.10;46.10;;;;;;5075508;28;20413;-67
2022/04/18 11:11:35;;;;;;;4.70;2.53;;;18.20;46.10;;;;;;5071344;28;20048;-67
2022/04/18 11:14:01;;;;;;;5.78;3.00;;;18.30;48.30;;;;;;5076499;28;20036;-67
2022/04/18 11:16:26;;;;;;;7.05;4.32;;;18.30;48.70;;;;;;5074915;28;20040;-67
2022/04/18 11:19:08;;;;;;;7.63;4.50;;;18.40;49.00;;;;;;5077768;28;20044;-67
2022/04/18 11:22:01;;;;;;;6.57;3.70;;;18.40;47.60;;;;;;5081983;28;20044;-67
2022/04/18 11:24:49;;;;;;;11.40;7.57;;;18.50;48.20;;;;;;5075354;28;20487;-67
2022/04/18 11:27:21;;;;;;;10.32;7.07;;;18.50;43.80;;;;;;5081253;28;20451;-67
2022/04/18 11:29:55;;;;;;;18.10;12.05;;;18.50;46.40;;;;;;5075160;28;20401;-68
2022/04/18 11:32:23;;;;;;;9.05;5.20;;;18.60;46.50;;;;;;5081298;28;20134;-66
2022/04/18 11:34:51;;;;;;;5.50;3.20;;;18.70;46.40;;;;;;5084569;28;20131;-67
2022/04/18 11:37:24;;;;;;;9.27;2.95;;;18.70;46.40;;;;;;5086887;28;20376;-67
2022/04/18 11:39:55;;;;;;;5.95;3.47;;;18.70;45.00;;;;;;5087037;28;20452;-67
2022/04/18 11:42:23;;;;;;;6.75;3.63;;;18.70;46.50;;;;;;5087248;28;20051;-67
2022/04/18 11:44:51;;;;;;;5.72;3.45;;;18.80;47.40;;;;;;5083795;28;20059;-68
2022/04/18 11:47:25;;;;;;;4.95;3.22;;;18.90;46.90;;;;;;5087005;28;20052;-67
2022/04/18 11:50:01;;;;;;;6.47;3.55;;;18.90;45.70;;;;;;5087096;28;20427;-67
2022/04/18 11:52:32;;;;;;;6.93;3.08;;;18.90;46.70;;;;;;5086445;28;20040;-68
2022/04/18 11:55:14;;;;;;;5.35;3.30;;;18.90;47.40;;;;;;5087255;28;20112;-67
2022/04/18 11:57:42;;;;;;;6.72;3.10;;;19.00;46.70;;;;;;5087504;28;20055;-67
2022/04/18 12:00:08;;;;;;;5.50;3.15;;;19.10;47.00;;;;;;5086110;28;20181;-67
2022/04/18 12:08:07;;;;;;;6.47;2.90;;;19.20;45.40;;;;;;5078290;28;20520;-67
2022/04/18 12:10:35;;;;;;;6.43;3.42;;;19.20;45.60;;;;;;5085857;28;20456;-68
2022/04/18 12:13:07;;;;;;;5.13;3.20;;;19.20;45.80;;;;;;5082588;28;20782;-67
2022/04/18 12:15:34;;;;;;;6.30;3.75;;;19.30;45.50;;;;;;5077826;28;20040;-68
2022/04/18 12:18:07;;;;;;;5.88;3.28;;;19.30;45.10;;;;;;5088676;28;20056;-68
2022/04/18 12:20:32;;;;;;;5.75;2.80;;;19.30;44.00;;;;;;5103246;27;20048;-68
2022/04/18 12:23:00;;;;;;;5.30;3.22;;;19.30;43.20;;;;;;5078477;28;20040;-67
2022/04/18 12:25:33;;;;;;;5.15;3.40;;;19.30;42.80;;;;;;5083293;28;20052;-68
2022/04/18 12:28:02;;;;;;;5.97;3.47;;;19.40;43.40;;;;;;5090271;28;20051;-68
2022/04/18 12:30:28;;;;;;;5.53;2.80;;;19.40;43.00;;;;;;5089989;28;20076;-68
2022/04/18 12:32:54;;;;;;;5.93;3.33;;;19.40;43.60;;;;;;5088889;28;20078;-68
2022/04/18 12:35:39;;;;;;;7.35;3.08;;;19.50;45.10;;;;;;5083551;28;20475;-68
2022/04/18 12:38:08;;;;;;;5.50;3.13;;;19.60;45.50;;;;;;5042707;28;20072;-69
2022/04/18 12:40:39;;;;;;;5.00;3.30;;;19.60;44.80;;;;;;5078540;28;20139;-69
2022/04/18 12:43:10;;;;;;;5.30;3.15;;;19.70;44.10;;;;;;5079501;28;20131;-69
2022/04/18 12:45:47;;;;;;;4.82;2.63;;;19.70;42.90;;;;;;5078840;28;20044;-69
2022/04/18 12:48:13;;;;;;;4.90;2.80;;;19.80;43.90;;;;;;5077083;28;20480;-69
2022/04/18 12:50:40;;;;;;;4.75;2.67;;;19.90;43.70;;;;;;5085875;28;20032;-69
2022/04/18 12:53:06;;;;;;;5.20;3.00;;;19.80;43.10;;;;;;5086719;28;20040;-69
2022/04/18 12:55:31;;;;;;;5.45;3.10;;;19.80;43.10;;;;;;5087987;28;20543;-69
2022/04/18 12:58:01;;;;;;;5.63;2.53;;;19.90;43.20;;;;;;5089269;28;20471;-69
2022/04/18 13:00:35;;;;;;;5.95;3.00;;;19.90;42.80;;;;;;5077197;28;20043;-68
2022/04/18 13:03:06;;;;;;;4.55;2.78;;;19.90;42.70;;;;;;5087609;28;20091;-68
2022/04/18 13:05:42;;;;;;;4.50;2.90;;;19.80;42.00;;;;;;5087921;28;20047;-67